Time;durP1;ratioP1;P1;durP2;ratioP2;P2;SDS_P1;SDS_P2;PMS_P1;PMS_P2;Temp;Humidity;BMP_temperature;BMP_pressure;BME280_temperature;BME280_humidity;BME280_pressure;Samples;Min_cycle;Max_cycle;Signal;HPM_P1;HPM_P2
2022/08/22 00:00:21;;;;;;;3.33;1.80;;;;;;;16.19;75.33;100610.91;5036326;28;20048;-43
2022/08/22 00:07:25;;;;;;;7.05;1.80;;;;;;;16.22;75.85;100604.56;5026173;28;20058;-43
2022/08/22 00:14:09;;;;;;;3.47;1.58;;;;;;;16.21;75.91;100591.78;5025750;28;20037;-42
2022/08/22 00:16:47;;;;;;;1.65;1.35;;;;;;;16.24;76.04;100579.03;5034797;28;20081;-42
2022/08/22 00:19:50;;;;;;;2.45;1.33;;;;;;;16.23;76.39;100577.44;5036087;28;20121;-42
2022/08/22 00:22:43;;;;;;;1.33;1.20;;;;;;;16.21;76.44;100579.78;5028881;28;20100;-42
2022/08/22 00:25:49;;;;;;;3.30;1.10;;;;;;;16.25;76.69;100575.84;5031209;28;20087;-43
2022/08/22 00:28:59;;;;;;;2.63;0.80;;;;;;;16.25;77.04;100563.88;5032520;28;20523;-43
2022/08/22 00:32:00;;;;;;;0.47;0.40;;;;;;;16.23;77.21;100572.63;5033237;28;20077;-43
2022/08/22 00:34:59;;;;;;;1.60;0.70;;;;;;;16.25;77.42;100573.06;5033927;28;20124;-43
2022/08/22 00:38:24;;;;;;;2.17;1.10;;;;;;;16.30;77.43;100571.91;5033746;28;20129;-43
2022/08/22 00:41:00;;;;;;;1.10;0.60;;;;;;;16.33;77.31;100562.75;5022545;28;20503;-43
2022/08/22 00:43:39;;;;;;;0.52;0.50;;;;;;;16.28;77.91;100558.31;5029571;28;20395;-43
2022/08/22 00:46:24;;;;;;;2.70;0.47;;;;;;;16.24;78.26;100557.47;5022615;28;20431;-43
2022/08/22 00:49:01;;;;;;;0.82;0.63;;;;;;;16.26;78.47;100560.69;5034550;28;20095;-42
2022/08/22 00:51:44;;;;;;;2.08;0.68;;;;;;;16.24;78.64;100557.47;5032916;28;20510;-42
2022/08/22 00:54:11;;;;;;;1.00;0.60;;;;;;;16.25;78.63;100556.31;5031793;28;20111;-42
2022/08/22 01:01:01;;;;;;;1.00;0.60;;;;;;;16.22;78.49;100556.28;5031453;28;20079;-42
2022/08/22 01:04:15;;;;;;;1.88;0.43;;;;;;;16.23;78.69;100555.88;5034550;28;20111;-42
2022/08/22 01:07:55;;;;;;;0.50;0.50;;;;;;;16.20;79.06;100548.25;5032204;28;20491;-42
2022/08/22 01:11:01;;;;;;;1.30;0.50;;;;;;;16.18;79.03;100535.88;5026990;28;20060;-42
2022/08/22 01:18:06;;;;;;;0.60;0.35;;;;;;;16.17;79.22;100556.63;5028211;28;20531;-47
2022/08/22 01:25:24;;;;;;;0.30;0.30;;;;;;;16.11;79.42;100503.13;5022597;28;20028;-43
2022/08/22 01:28:10;;;;;;;1.10;0.35;;;;;;;16.07;79.44;100524.63;5021070;28;20045;-47
2022/08/22 01:30:46;;;;;;;0.70;0.60;;;;;;;16.05;79.89;100526.19;5033022;28;20495;-43
2022/08/22 01:33:50;;;;;;;0.55;0.30;;;;;;;16.07;80.00;100521.84;5031119;28;20041;-43
2022/08/22 01:47:47;;;;;;;0.32;0.32;;;;;;;16.04;80.22;100493.91;5033164;28;20033;-43
2022/08/22 01:50:35;;;;;;;0.40;0.40;;;;;;;16.05;80.72;100487.91;5024983;28;20057;-43
2022/08/22 01:53:24;;;;;;;1.30;0.70;;;;;;;16.08;81.14;100492.72;5029036;28;20037;-43
2022/08/22 01:56:08;;;;;;;0.60;0.60;;;;;;;16.11;81.24;100493.94;5028896;28;20450;-44
2022/08/22 01:58:44;;;;;;;1.15;0.40;;;;;;;16.12;81.23;100487.19;5031813;28;20294;-44
2022/08/22 02:01:42;;;;;;;1.15;0.70;;;;;;;16.12;81.66;100476.81;5006360;28;20068;-44
2022/08/22 02:04:32;;;;;;;1.35;0.52;;;;;;;16.12;81.74;100474.00;5031072;28;20046;-44
2022/08/22 02:07:01;;;;;;;1.25;0.47;;;;;;;16.12;81.66;100465.63;5028910;28;20144;-44
2022/08/22 02:09:51;;;;;;;4.78;1.00;;;;;;;16.14;82.08;100463.25;4992999;28;20034;-43
2022/08/22 02:12:42;;;;;;;0.75;0.65;;;;;;;16.17;82.06;100468.06;4992792;28;20437;-43
2022/08/22 02:15:40;;;;;;;3.80;1.45;;;;;;;16.18;82.36;100460.47;4988580;28;20046;-46
2022/08/22 02:18:45;;;;;;;7.95;1.38;;;;;;;16.18;82.23;100461.25;4989991;28;20100;-43
2022/08/22 02:22:02;;;;;;;2.22;1.35;;;;;;;16.20;82.32;100452.50;4992328;28;20154;-43
2022/08/22 02:24:52;;;;;;;2.42;1.10;;;;;;;16.21;82.25;100460.50;4980226;28;20485;-47
2022/08/22 02:27:51;;;;;;;1.52;0.98;;;;;;;16.22;82.35;100448.13;4990626;28;20529;-43
2022/08/22 02:35:06;;;;;;;1.77;0.93;;;;;;;16.22;82.67;100442.56;4985907;28;20088;-43
2022/08/22 02:37:58;;;;;;;2.65;1.33;;;;;;;16.21;82.84;100449.31;4986900;28;20050;-43
2022/08/22 02:40:33;;;;;;;2.13;1.20;;;;;;;16.24;82.82;100442.94;4991180;28;20038;-43
2022/08/22 02:43:07;;;;;;;1.27;1.00;;;;;;;16.24;83.03;100442.16;4983842;28;20043;-43
2022/08/22 02:45:56;;;;;;;2.85;1.58;;;;;;;16.21;83.39;100429.75;4992590;28;20092;-43
2022/08/22 02:48:39;;;;;;;2.58;1.40;;;;;;;16.21;83.64;100445.72;4992551;28;20100;-43
2022/08/22 02:51:24;;;;;;;1.17;1.00;;;;;;;16.21;83.99;100435.34;4989465;28;20488;-43
2022/08/22 02:54:15;;;;;;;1.52;1.15;;;;;;;16.21;84.13;100446.53;4987628;28;20046;-43
2022/08/22 02:57:11;;;;;;;3.73;1.40;;;;;;;16.21;83.75;100424.19;4994723;28;20100;-43
2022/08/22 06:54:18;;;;;;;0.65;0.63;;;;;;;17.58;87.74;100263.44;5026168;28;20100;-45
2022/08/22 06:56:49;;;;;;;1.00;0.90;;;;;;;17.62;87.69;100267.84;5028062;28;20045;-44
2022/08/22 06:59:24;;;;;;;3.40;0.93;;;;;;;17.66;87.85;100273.41;5011302;28;20042;-49
2022/08/22 07:02:36;;;;;;;1.08;0.98;;;;;;;17.71;87.84;100275.81;5013769;28;20395;-43
2022/08/22 07:05:05;;;;;;;2.17;1.10;;;;;;;17.71;87.67;100275.81;5011056;28;20073;-46
2022/08/22 07:07:34;;;;;;;0.47;0.47;;;;;;;17.73;87.51;100275.41;5029175;28;20042;-46
2022/08/22 07:10:02;;;;;;;1.40;0.98;;;;;;;17.75;87.45;100275.78;5029554;28;20056;-45
2022/08/22 07:12:34;;;;;;;2.40;0.60;;;;;;;17.78;87.18;100272.19;5031204;28;20050;-43
2022/08/22 07:15:19;;;;;;;0.75;0.50;;;;;;;17.79;86.89;100273.78;5031889;28;20053;-44
2022/08/22 07:17:50;;;;;;;1.05;0.68;;;;;;;17.80;86.45;100266.97;5020525;28;20567;-46
2022/08/22 07:24:12;;;;;;;1.02;0.68;;;;;;;17.82;85.71;100256.19;5028478;28;20080;-43
2022/08/22 07:27:04;;;;;;;1.30;0.40;;;;;;;17.86;85.50;100259.75;5033238;28;20068;-44
2022/08/22 07:48:48;;;;;;;2.00;0.60;;;;;;;17.89;80.89;100264.53;4855074;23;20062;-43
2022/08/22 07:52:00;;;;;;;1.85;0.63;;;;;;;17.87;80.67;100255.75;5076251;28;20052;-44
2022/08/22 07:59:05;;;;;;;0.95;0.40;;;;;;;17.95;80.48;100257.31;5074222;28;20080;-44
2022/08/22 08:01:47;;;;;;;0.55;0.30;;;;;;;17.97;80.02;100254.91;5074491;28;20072;-52
2022/08/22 08:04:19;;;;;;;3.25;1.00;;;;;;;17.98;79.65;100259.28;5067003;28;20398;-43
2022/08/22 08:06:58;;;;;;;0.88;0.40;;;;;;;17.99;79.31;100253.28;5053975;28;20052;-43
2022/08/22 08:09:33;;;;;;;0.32;0.32;;;;;;;18.01;79.02;100261.28;5054387;28;20041;-44
2022/08/22 08:19:02;;;;;;;1.48;0.40;;;;;;;18.05;77.65;100259.28;5074075;28;20044;-46
2022/08/22 08:25:14;;;;;;;0.52;0.30;;;;;;;18.23;77.11;100251.56;5055684;28;20048;-45
2022/08/22 08:30:44;;;;;;;0.65;0.28;;;;;;;18.41;76.72;100260.66;5070746;28;20040;-45
2022/08/22 08:41:01;;;;;;;2.13;0.30;;;;;;;18.68;77.08;100249.69;5071541;28;20375;-44
2022/08/22 08:48:01;;;;;;;1.20;0.30;;;;;;;19.22;76.47;100251.63;5072446;28;20128;-42
2022/08/22 08:51:06;;;;;;;0.70;0.30;;;;;;;19.24;75.98;100259.66;5023806;28;20065;-44
2022/08/22 08:54:42;;;;;;;0.25;0.25;;;;;;;19.18;75.80;100250.88;5023969;28;20042;-43
2022/08/22 09:01:58;;;;;;;1.10;0.50;;;;;;;19.22;75.26;100250.84;5031109;28;20064;-43
2022/08/22 09:09:28;;;;;;;0.10;0.10;;;;;;;19.35;74.67;100261.13;5029229;28;20510;-45
2022/08/22 09:20:49;;;;;;;0.57;0.17;;;;;;;19.26;74.00;100260.81;5014369;28;20044;-44
2022/08/22 09:27:28;;;;;;;1.15;0.20;;;;;;;19.22;74.09;100273.31;5015112;28;20042;-47
2022/08/22 09:41:36;;;;;;;1.05;0.30;;;;;;;19.00;74.46;100283.09;5031802;28;20041;-43
2022/08/22 09:47:58;;;;;;;0.20;0.20;;;;;;;18.83;74.75;100279.22;5023713;28;20033;-43
2022/08/22 09:59:30;;;;;;;0.28;0.20;;;;;;;18.96;74.71;100288.75;5054407;28;20128;-44
2022/08/22 10:02:21;;;;;;;0.52;0.50;;;;;;;18.97;74.92;100289.53;5053893;28;20044;-45
2022/08/22 10:12:48;;;;;;;0.85;0.30;;;;;;;18.90;75.09;100290.41;5074534;28;20170;-43
2022/08/22 10:15:37;;;;;;;3.05;0.50;;;;;;;18.91;75.04;100285.56;5073706;28;20478;-44
2022/08/22 10:18:33;;;;;;;0.93;0.45;;;;;;;18.95;74.92;100292.78;5071791;28;20390;-49
2022/08/22 10:21:08;;;;;;;1.13;0.43;;;;;;;19.07;74.71;100300.69;5060072;28;20044;-44
2022/08/22 10:23:43;;;;;;;0.47;0.40;;;;;;;19.20;74.53;100292.53;5072831;28;20515;-45
2022/08/22 10:26:54;;;;;;;2.80;0.25;;;;;;;19.24;74.32;100299.75;5055294;28;20044;-44
2022/08/22 10:33:50;;;;;;;1.58;0.40;;;;;;;19.37;74.12;100300.03;5071442;28;20044;-49
2022/08/22 10:44:57;;;;;;;0.90;0.30;;;;;;;19.41;73.94;100303.59;5069209;28;20477;-46
2022/08/22 10:47:37;;;;;;;1.27;0.50;;;;;;;19.39;73.95;100300.44;5072573;28;20090;-45
2022/08/22 10:50:25;;;;;;;0.68;0.40;;;;;;;19.34;74.22;100298.84;5071765;28;20067;-43
2022/08/22 10:53:34;;;;;;;0.73;0.30;;;;;;;19.24;74.65;100304.56;5071095;28;20055;-46
2022/08/22 10:56:28;;;;;;;0.95;0.65;;;;;;;19.12;75.32;100319.88;5073836;28;20033;-47
2022/08/22 10:59:24;;;;;;;1.25;0.43;;;;;;;18.99;75.77;100309.56;5056549;28;20076;-44
2022/08/22 11:02:34;;;;;;;1.60;0.77;;;;;;;18.99;76.37;100315.16;5073277;28;20059;-44
2022/08/22 11:09:35;;;;;;;1.60;0.45;;;;;;;19.35;76.50;100306.03;5072332;28;20037;-44
2022/08/22 11:25:07;;;;;;;1.90;0.40;;;;;;;20.99;72.60;100306.44;5056107;28;20037;-43
2022/08/22 11:28:11;;;;;;;0.90;0.60;;;;;;;21.14;72.19;100293.75;5055877;28;20498;-42
2022/08/22 11:35:26;;;;;;;0.73;0.50;;;;;;;21.45;70.80;100285.16;5076072;28;20036;-43
2022/08/22 11:37:58;;;;;;;0.52;0.52;;;;;;;21.43;70.28;100288.41;5022770;28;20134;-44
2022/08/22 11:40:31;;;;;;;1.33;0.40;;;;;;;21.59;69.45;100282.88;5076534;28;20474;-43
2022/08/22 11:43:26;;;;;;;0.98;0.20;;;;;;;21.75;68.46;100285.00;5074578;28;20040;-47
2022/08/22 11:46:12;;;;;;;2.05;0.45;;;;;;;21.79;67.39;100282.91;5057185;28;20128;-45
2022/08/22 11:48:57;;;;;;;0.63;0.52;;;;;;;21.71;66.81;100278.66;5055316;28;20052;-47
2022/08/22 11:52:17;;;;;;;0.75;0.43;;;;;;;21.65;66.52;100286.00;5057391;28;20419;-46
2022/08/22 11:58:46;;;;;;;0.60;0.60;;;;;;;21.21;66.77;100268.28;5076388;28;20029;-43
2022/08/22 12:01:41;;;;;;;1.58;0.80;;;;;;;21.39;66.97;100289.72;5076443;28;20048;-43
2022/08/22 12:04:32;;;;;;;1.05;0.90;;;;;;;21.53;66.50;100273.34;5051681;28;20553;-44
2022/08/22 12:07:22;;;;;;;1.85;1.05;;;;;;;21.77;65.67;100265.63;5070254;28;20036;-43
2022/08/22 12:10:16;;;;;;;1.15;0.80;;;;;;;21.95;65.13;100266.09;5075075;28;20114;-43
2022/08/22 12:13:12;;;;;;;1.75;0.82;;;;;;;22.21;64.50;100262.31;5074697;28;20049;-43
2022/08/22 12:20:20;;;;;;;1.15;0.40;;;;;;;22.55;62.50;100261.16;5044997;28;20041;-42
2022/08/22 12:26:45;;;;;;;1.20;0.43;;;;;;;22.19;61.10;100259.13;5075788;28;20048;-41
2022/08/22 12:29:24;;;;;;;1.25;0.73;;;;;;;22.16;60.96;100259.22;5075165;28;20124;-43
2022/08/22 12:32:50;;;;;;;0.80;0.52;;;;;;;22.15;60.54;100266.88;5075835;28;20036;-43
2022/08/22 12:39:51;;;;;;;0.85;0.30;;;;;;;22.63;58.88;100259.81;5057256;28;20074;-47
2022/08/22 12:42:44;;;;;;;1.10;0.57;;;;;;;22.75;58.73;100261.91;5069685;28;20040;-46
2022/08/22 12:49:58;;;;;;;2.50;0.43;;;;;;;23.04;58.20;100257.97;5073631;28;20113;-44
2022/08/22 13:00:43;;;;;;;0.85;0.45;;;;;;;23.45;57.05;100277.13;5063220;28;20037;-45
2022/08/22 13:03:47;;;;;;;1.15;0.52;;;;;;;23.63;56.32;100276.63;5071865;28;20046;-47
2022/08/22 13:06:34;;;;;;;2.78;0.40;;;;;;;23.56;56.09;100277.59;5071242;28;20056;-45
2022/08/22 13:20:40;;;;;;;2.33;0.75;;;;;;;23.40;55.90;100285.34;5074778;28;20036;-47
2022/08/22 13:23:19;;;;;;;1.05;0.57;;;;;;;23.44;55.68;100281.16;5075055;28;20055;-45
2022/08/22 13:26:07;;;;;;;1.13;0.55;;;;;;;23.46;55.35;100278.69;5075122;28;20041;-46
2022/08/22 13:29:03;;;;;;;1.88;0.70;;;;;;;23.59;55.41;100273.88;5060830;28;20045;-46
2022/08/22 13:31:58;;;;;;;1.33;0.70;;;;;;;23.57;54.92;100275.56;5072083;28;20094;-51
2022/08/22 13:34:55;;;;;;;2.33;0.75;;;;;;;23.74;54.70;100279.16;5073913;28;20502;-45
2022/08/22 13:41:57;;;;;;;1.73;0.82;;;;;;;23.62;54.11;100277.84;5071585;28;20045;-44
2022/08/22 13:44:51;;;;;;;1.10;0.50;;;;;;;23.84;53.53;100280.91;5062557;28;20145;-46
2022/08/22 13:47:48;;;;;;;2.45;0.50;;;;;;;23.88;53.24;100285.19;5069718;28;20048;-44
2022/08/22 13:51:01;;;;;;;1.95;0.80;;;;;;;24.13;53.09;100276.84;5072325;28;20062;-43
2022/08/22 13:54:13;;;;;;;2.42;0.50;;;;;;;24.49;52.36;100282.19;5072934;28;20064;-51
2022/08/22 13:57:39;;;;;;;2.35;0.63;;;;;;;24.41;52.50;100280.84;5069729;28;20092;-48
2022/08/22 14:01:04;;;;;;;2.42;0.60;;;;;;;24.25;52.06;100278.13;5063005;28;20435;-48
2022/08/22 14:04:08;;;;;;;2.15;1.00;;;;;;;24.24;52.64;100270.88;5063447;28;20120;-48
2022/08/22 14:07:19;;;;;;;2.90;0.65;;;;;;;24.79;52.00;100276.03;5072338;28;20132;-44
2022/08/22 14:10:20;;;;;;;0.80;0.68;;;;;;;25.17;51.19;100275.19;5072407;28;20047;-46
2022/08/22 14:13:31;;;;;;;1.90;0.52;;;;;;;25.55;50.08;100266.63;5073584;28;20055;-47
2022/08/22 14:16:32;;;;;;;3.17;0.95;;;;;;;25.72;49.76;100270.84;5069159;28;20070;-44
2022/08/22 14:19:24;;;;;;;1.20;0.30;;;;;;;25.58;49.49;100265.69;5055203;28;20083;-47
2022/08/22 14:22:20;;;;;;;2.65;0.85;;;;;;;25.82;48.99;100267.63;5052950;28;20399;-46
2022/08/22 14:25:22;;;;;;;2.97;0.95;;;;;;;26.08;48.03;100261.84;5053407;28;20045;-49
2022/08/22 14:28:29;;;;;;;2.03;0.60;;;;;;;25.78;48.28;100264.16;5067394;28;20060;-45
2022/08/22 14:31:23;;;;;;;1.98;1.08;;;;;;;25.89;48.29;100247.50;5072419;28;20502;-45
2022/08/22 14:34:13;;;;;;;1.77;1.40;;;;;;;25.93;47.96;100267.25;5072683;28;20402;-45
2022/08/22 14:37:23;;;;;;;1.67;1.58;;;;;;;25.96;47.63;100263.50;5064240;28;20064;-45
2022/08/22 14:40:18;;;;;;;1.00;0.70;;;;;;;25.80;48.05;100260.84;5071620;28;20177;-45
2022/08/22 14:43:20;;;;;;;1.05;0.90;;;;;;;25.84;47.74;100270.78;5072576;28;20043;-46
2022/08/22 14:46:13;;;;;;;1.52;0.65;;;;;;;25.78;47.95;100266.19;5059095;28;20048;-47
2022/08/22 14:53:34;;;;;;;1.35;1.08;;;;;;;25.35;48.76;100258.38;5033669;28;20069;-44
2022/08/22 14:56:26;;;;;;;4.55;0.98;;;;;;;25.33;48.42;100252.38;5051822;28;20510;-44
2022/08/22 15:02:47;;;;;;;1.48;0.80;;;;;;;25.84;48.06;100250.19;5033497;28;20048;-44
2022/08/22 15:08:56;;;;;;;1.52;0.82;;;;;;;26.73;46.70;100254.00;5041538;28;20077;-43
2022/08/22 15:11:28;;;;;;;1.75;0.70;;;;;;;26.92;46.07;100252.06;5033669;28;20051;-45
2022/08/22 15:14:11;;;;;;;1.38;0.63;;;;;;;26.92;45.48;100250.00;5033509;28;20045;-43
2022/08/22 15:16:41;;;;;;;;;;;;;;;26.67;46.32;100247.34;5042897;28;20051;-47
2022/08/22 15:19:34;;;;;;;1.77;0.52;;;;;;;26.68;46.38;100239.63;5051222;28;20391;-43
2022/08/22 15:22:09;;;;;;;1.05;0.70;;;;;;;26.98;45.37;100253.03;5053276;28;20049;-43
2022/08/22 15:24:48;;;;;;;2.50;0.55;;;;;;;27.23;44.70;100249.91;5052243;28;20442;-46
2022/08/22 15:27:20;;;;;;;1.67;0.55;;;;;;;27.30;44.52;100249.59;5044707;28;20372;-46
2022/08/22 15:29:52;;;;;;;0.52;0.52;;;;;;;27.23;44.27;100247.06;5052343;28;20045;-43
2022/08/22 15:32:22;;;;;;;1.58;0.60;;;;;;;27.15;44.12;100251.47;5053776;28;20053;-44
2022/08/22 15:35:25;;;;;;;2.13;0.80;;;;;;;27.20;43.90;100248.00;5034076;28;20415;-44
2022/08/22 15:42:32;;;;;;;1.10;0.50;;;;;;;27.29;43.89;100233.03;5039137;28;20049;-47
2022/08/22 15:49:19;;;;;;;1.92;0.60;;;;;;;27.49;43.92;100231.31;5051137;28;20033;-43
2022/08/22 15:52:13;;;;;;;2.25;0.70;;;;;;;27.39;44.10;100234.59;5063303;28;20076;-43
2022/08/22 15:55:22;;;;;;;1.45;0.60;;;;;;;27.26;43.90;100239.66;5071993;28;20174;-43
2022/08/22 15:58:19;;;;;;;2.55;0.98;;;;;;;26.75;44.37;100240.13;5062564;28;20474;-45
2022/08/22 16:01:08;;;;;;;6.20;0.93;;;;;;;26.42;44.83;100233.38;5066618;28;20048;-47
2022/08/22 16:04:11;;;;;;;3.10;0.77;;;;;;;26.02;45.61;100241.78;5062061;28;20040;-48
2022/08/22 16:07:00;;;;;;;2.10;0.38;;;;;;;25.73;45.81;100244.09;5074464;28;20090;-44
2022/08/22 16:09:53;;;;;;;1.85;0.32;;;;;;;25.58;46.21;100238.13;5063921;28;20055;-43
2022/08/22 16:12:43;;;;;;;2.92;0.63;;;;;;;25.49;46.65;100229.56;5075320;28;20093;-43
2022/08/22 16:15:48;;;;;;;1.63;0.80;;;;;;;25.45;47.11;100226.03;5072394;28;20506;-45
2022/08/22 16:18:42;;;;;;;1.35;0.57;;;;;;;25.65;46.96;100231.44;5070750;28;20044;-45
2022/08/22 16:21:29;;;;;;;1.70;0.50;;;;;;;25.71;46.85;100229.56;5056830;28;20064;-44
2022/08/22 16:24:16;;;;;;;2.60;0.70;;;;;;;25.73;46.77;100239.22;5055543;28;20175;-44
2022/08/22 16:27:18;;;;;;;1.83;0.50;;;;;;;25.65;46.47;100228.59;5069871;28;20068;-43
2022/08/22 16:30:09;;;;;;;1.63;0.57;;;;;;;25.55;46.98;100235.44;5072969;28;20072;-44
2022/08/22 16:32:58;;;;;;;2.20;0.68;;;;;;;25.41;47.21;100231.03;5072383;28;20119;-44
2022/08/22 16:36:13;;;;;;;0.95;0.70;;;;;;;25.31;47.16;100235.81;5065578;28;20051;-44
2022/08/22 16:39:01;;;;;;;2.58;0.50;;;;;;;25.10;47.75;100230.88;5060561;28;20045;-48
2022/08/22 16:42:21;;;;;;;1.95;0.73;;;;;;;25.01;47.79;100230.00;5075405;28;20040;-43
2022/08/22 16:52:57;;;;;;;5.38;1.02;;;;;;;24.74;48.71;100224.81;5042195;28;20044;-43
2022/08/22 17:00:40;;;;;;;2.42;0.80;;;;;;;24.61;49.08;100235.34;5074237;28;20040;-46
2022/08/22 17:11:00;;;;;;;3.30;1.27;;;;;;;24.18;49.94;100227.41;5055242;28;20037;-42
2022/08/22 17:13:51;;;;;;;1.45;0.70;;;;;;;24.08;50.07;100228.47;5036250;28;20061;-43
2022/08/22 17:25:28;;;;;;;4.20;0.82;;;;;;;24.04;50.55;100233.47;5066581;28;20037;-42
2022/08/22 17:32:01;;;;;;;3.00;0.60;;;;;;;24.06;50.37;100242.28;5067435;28;20094;-47
2022/08/22 17:35:05;;;;;;;1.30;0.55;;;;;;;24.03;50.57;100229.03;5054580;28;20052;-46
2022/08/22 17:37:58;;;;;;;3.58;0.88;;;;;;;24.03;50.77;100234.69;5072123;28;20076;-45
2022/08/22 17:40:52;;;;;;;2.42;1.30;;;;;;;23.99;50.88;100231.16;5066951;28;20052;-46
2022/08/22 17:43:51;;;;;;;8.10;1.13;;;;;;;24.00;50.84;100233.56;5062285;28;20537;-49
2022/08/22 17:46:53;;;;;;;2.85;0.88;;;;;;;23.95;51.26;100236.16;5064847;28;20055;-46
2022/08/22 17:49:40;;;;;;;1.70;0.65;;;;;;;23.88;51.36;100230.72;5062365;28;20531;-44
2022/08/22 17:52:44;;;;;;;1.13;0.75;;;;;;;23.80;51.69;100218.78;5068726;28;20059;-44
2022/08/22 17:55:53;;;;;;;2.13;0.60;;;;;;;23.77;51.80;100218.91;5067009;28;20127;-43
2022/08/22 17:58:47;;;;;;;2.08;0.70;;;;;;;23.75;51.67;100227.81;5058360;28;20222;-42
2022/08/22 18:05:57;;;;;;;2.15;0.68;;;;;;;23.73;51.92;100230.31;5056765;28;20052;-42
2022/08/22 18:08:52;;;;;;;3.13;1.00;;;;;;;23.65;52.19;100240.22;5057815;28;20204;-42
2022/08/22 18:12:24;;;;;;;3.30;0.90;;;;;;;23.60;52.39;100238.75;5068665;28;20052;-44
2022/08/22 18:15:37;;;;;;;;;;;;;;;23.43;52.90;100234.38;5063699;28;20149;-43
2022/08/22 18:18:37;;;;;;;2.50;1.00;;;;;;;23.41;52.88;100234.03;5040670;28;20058;-43
2022/08/22 18:21:31;;;;;;;2.92;1.20;;;;;;;23.41;53.18;100250.97;5065506;28;20123;-42
2022/08/22 18:24:29;;;;;;;1.17;0.80;;;;;;;23.41;53.33;100242.50;5064385;28;20048;-42
2022/08/22 18:31:29;;;;;;;3.70;0.73;;;;;;;23.28;53.91;100255.75;5069796;28;20147;-43
2022/08/22 18:34:37;;;;;;;1.52;1.15;;;;;;;23.23;53.74;100261.94;5070502;28;20041;-42
2022/08/22 18:37:29;;;;;;;4.60;1.10;;;;;;;23.14;54.26;100258.91;5067037;28;20059;-45
2022/08/22 18:40:29;;;;;;;4.70;1.20;;;;;;;23.02;54.80;100256.81;5069187;28;20410;-45
2022/08/22 18:56:12;;;;;;;2.85;1.42;;;;;;;22.80;55.78;100267.84;5017624;28;20404;-48
2022/08/22 19:03:47;;;;;;;5.82;1.50;;;;;;;22.62;56.07;100269.47;5021903;28;20041;-46
2022/08/22 19:07:09;;;;;;;4.03;1.13;;;;;;;22.64;56.29;100275.47;5022035;28;20167;-50
2022/08/22 19:14:40;;;;;;;1.58;0.98;;;;;;;22.58;56.69;100275.22;5027907;28;20134;-45
2022/08/22 19:17:58;;;;;;;1.67;1.05;;;;;;;22.54;56.94;100270.84;5023698;28;20111;-47
2022/08/22 19:24:55;;;;;;;2.90;0.90;;;;;;;22.36;57.52;100277.72;4946314;28;20057;-47
2022/08/22 19:28:05;;;;;;;2.45;1.38;;;;;;;22.24;58.00;100274.78;5024321;28;20103;-44
2022/08/22 19:31:23;;;;;;;1.48;0.60;;;;;;;22.15;58.28;100271.72;5023978;28;20037;-50
2022/08/22 19:34:28;;;;;;;2.70;0.70;;;;;;;22.07;58.74;100268.28;5027819;28;20163;-46
2022/08/22 19:37:19;;;;;;;1.58;0.85;;;;;;;22.07;59.04;100268.28;5031864;28;20080;-46
2022/08/22 19:40:44;;;;;;;5.57;1.58;;;;;;;22.06;59.05;100255.41;5026958;28;20049;-44
2022/08/22 19:43:36;;;;;;;0.82;0.28;;;;;;;22.08;58.96;100269.06;5023659;28;20535;-43
2022/08/22 19:50:35;;;;;;;1.63;0.70;;;;;;;22.08;58.59;100275.47;5025762;28;20091;-44
2022/08/22 19:54:04;;;;;;;2.20;0.60;;;;;;;22.09;59.02;100277.09;5031904;28;20561;-41
2022/08/22 19:57:00;;;;;;;1.20;0.70;;;;;;;22.08;59.04;100291.63;5068726;28;20453;-44
2022/08/22 20:07:45;;;;;;;2.08;0.80;;;;;;;21.95;59.39;100276.59;5067404;28;20047;-42
2022/08/22 20:10:42;;;;;;;2.60;0.85;;;;;;;21.93;59.70;100277.00;5068614;28;20044;-42
2022/08/22 20:13:19;;;;;;;1.70;0.88;;;;;;;21.85;59.96;100278.34;5070169;28;20040;-42
2022/08/22 20:16:09;;;;;;;3.45;0.95;;;;;;;21.85;59.69;100273.50;5064004;28;20072;-42
2022/08/22 20:18:56;;;;;;;4.35;1.00;;;;;;;21.80;59.86;100281.69;5069860;28;20087;-43
2022/08/22 20:21:58;;;;;;;1.48;0.90;;;;;;;21.77;60.28;100279.72;5072032;28;20049;-47
2022/08/22 20:25:01;;;;;;;3.05;1.10;;;;;;;21.77;60.14;100285.34;5063845;28;20041;-44
2022/08/22 20:27:58;;;;;;;2.20;0.70;;;;;;;21.72;60.20;100283.03;5069066;28;20087;-44
2022/08/22 20:30:48;;;;;;;1.23;0.75;;;;;;;21.70;60.46;100279.88;5049023;28;20071;-46
2022/08/22 20:33:40;;;;;;;3.45;0.80;;;;;;;21.67;60.71;100272.28;5061287;28;20041;-46
2022/08/22 20:52:34;;;;;;;3.78;1.20;;;;;;;21.46;60.91;100261.41;5065106;28;20052;-44
2022/08/22 20:55:28;;;;;;;1.98;0.80;;;;;;;21.40;61.08;100263.13;5069522;28;20091;-45
2022/08/22 20:58:26;;;;;;;3.85;1.35;;;;;;;21.34;61.44;100264.88;5067824;28;20044;-49
2022/08/22 21:01:14;;;;;;;2.88;1.40;;;;;;;21.32;61.49;100261.66;5072588;28;20558;-48
2022/08/22 21:04:03;;;;;;;4.38;1.67;;;;;;;21.27;61.22;100264.97;5070633;28;20406;-43
2022/08/22 21:06:59;;;;;;;4.30;1.17;;;;;;;21.21;61.70;100261.84;5068801;28;20044;-49
2022/08/22 21:13:58;;;;;;;1.48;0.88;;;;;;;21.15;62.06;100258.72;5070690;28;20044;-45
2022/08/22 21:16:45;;;;;;;2.00;1.25;;;;;;;21.12;62.09;100258.81;5064163;28;20047;-43
2022/08/22 21:19:32;;;;;;;2.08;0.98;;;;;;;21.10;62.44;100262.03;5065374;28;20041;-44
2022/08/22 21:22:28;;;;;;;4.43;1.20;;;;;;;21.07;62.70;100259.31;5070672;28;20048;-45
2022/08/22 21:25:16;;;;;;;3.08;1.55;;;;;;;21.05;62.96;100256.88;5068706;28;20083;-44
2022/08/22 21:28:03;;;;;;;3.45;1.25;;;;;;;21.02;63.05;100259.75;5068823;28;20048;-44
2022/08/22 21:30:50;;;;;;;2.80;1.20;;;;;;;21.00;63.13;100260.16;5051254;28;20081;-42
2022/08/22 21:33:46;;;;;;;1.83;1.50;;;;;;;20.96;63.04;100253.03;5068514;28;20179;-44
2022/08/22 21:36:36;;;;;;;4.00;1.30;;;;;;;20.93;63.30;100251.84;5071961;28;20690;-46
2022/08/22 21:43:27;;;;;;;3.45;1.40;;;;;;;20.89;63.16;100253.91;5072381;28;20064;-48
2022/08/22 21:45:54;;;;;;;2.42;1.50;;;;;;;20.88;63.13;100255.16;5068437;28;20048;-48
2022/08/22 21:48:55;;;;;;;2.03;1.30;;;;;;;20.82;63.32;100262.47;5067636;28;20040;-43
2022/08/22 21:51:44;;;;;;;3.90;1.40;;;;;;;20.73;63.94;100265.03;5070548;28;20460;-46
2022/08/22 21:54:38;;;;;;;3.55;1.52;;;;;;;20.69;64.07;100260.69;5071060;28;20128;-45
2022/08/22 21:57:33;;;;;;;3.75;1.77;;;;;;;20.64;63.79;100261.97;5071234;28;20045;-49
2022/08/22 22:04:32;;;;;;;3.17;1.42;;;;;;;20.51;64.44;100264.59;5056509;28;20049;-44
2022/08/22 22:07:22;;;;;;;4.10;1.92;;;;;;;20.47;64.76;100263.03;5066205;28;20048;-46
2022/08/22 22:10:13;;;;;;;3.67;1.40;;;;;;;20.47;64.86;100260.22;5053572;28;20090;-46
2022/08/22 22:13:01;;;;;;;3.97;1.55;;;;;;;20.49;64.39;100252.94;5063896;28;20098;-44
2022/08/22 22:15:51;;;;;;;3.50;1.42;;;;;;;20.51;64.68;100258.16;5065960;28;20121;-43
2022/08/22 22:18:39;;;;;;;2.38;1.70;;;;;;;20.45;64.60;100277.50;5070635;28;20119;-46
2022/08/22 22:21:26;;;;;;;3.95;1.88;;;;;;;20.42;64.91;100278.34;5072234;28;20482;-48
2022/08/22 22:24:14;;;;;;;3.90;1.95;;;;;;;20.42;65.14;100271.94;5053301;28;20051;-46
2022/08/22 22:27:02;;;;;;;5.07;2.08;;;;;;;20.40;65.17;100282.81;5070398;28;20036;-42
2022/08/22 22:29:50;;;;;;;2.00;1.33;;;;;;;20.40;65.34;100280.81;5075208;28;20090;-43
2022/08/22 22:32:37;;;;;;;3.22;1.65;;;;;;;20.46;65.45;100283.94;5068630;28;20098;-45
2022/08/22 22:35:04;;;;;;;5.75;1.42;;;;;;;20.49;65.62;100277.47;5044449;28;20043;-46
2022/08/22 22:37:32;;;;;;;5.53;1.75;;;;;;;20.49;65.46;100283.09;5071285;28;20086;-45
2022/08/22 22:40:04;;;;;;;1.83;1.10;;;;;;;20.48;65.62;100287.13;5071725;28;20135;-42
2022/08/22 22:42:34;;;;;;;3.50;1.38;;;;;;;20.48;65.48;100287.13;5072632;28;20044;-44
2022/08/22 22:45:01;;;;;;;3.67;1.52;;;;;;;20.48;65.58;100275.88;5072811;28;20098;-49
2022/08/22 22:47:48;;;;;;;4.57;1.98;;;;;;;20.44;65.76;100275.91;5055307;28;20146;-45
2022/08/22 22:50:39;;;;;;;3.08;1.30;;;;;;;20.45;65.97;100268.28;5054129;28;20439;-46
2022/08/22 22:53:26;;;;;;;2.30;1.08;;;;;;;20.44;65.55;100267.47;5065649;28;20521;-46
2022/08/22 22:56:24;;;;;;;7.40;1.60;;;;;;;20.41;65.83;100265.50;5070893;28;20491;-44
2022/08/22 22:59:11;;;;;;;2.45;1.10;;;;;;;20.39;65.96;100275.59;5073862;28;20044;-50
2022/08/22 23:02:19;;;;;;;4.18;1.08;;;;;;;20.30;66.24;100283.75;5059845;28;20044;-47